Anton, Texas
Current Conditions -  °F | °C
As of 2:53 AM on Wednesday 28 Jan 2015 (Local Time) from KLBB Reporting Station
Clear Clear  
Wind Chill: 35°   Ceiling: Unl
Heat Index: 41°   Visibility: 10mi
Dew Point: 34°   Wind: 9mph
Humidity: 76%   Direction: 250°WSW
Pressure: 30.1"   Gusts: NA
Location:  33.81°N, 102.16°W
Report Text: KLBB 280853Z 25008KT 10SM CLR 05/01 A3010 RMK AO2 SLP168 T00500011 56010
Loading
Personal Weather Stations






























Interactive Weather Map New forecast layout! Learn more

10-Day Weather Forecast

Advertisements
Track Severe Weather on mobile